Harbision Canyon (356) Station Data

Red Flag Warning: No
Fire Weather Zone: 250
SDGE Region: Eastern
Lat/Lon: 32.822/-116.829

Observations

Time Wind Speed/Gust Temp(F) RH Fuel Moist Fuel Temp(F) Dewpt(F) Tmax(F) Tmin(F) Accum Precip 10-min Precip SL Press(mb)
4/26 2:40am 17 4 G 7 51° 81% - - 45° 53.5° 50.3° - - -
4/26 2:30am 16 5 G 8 51° 81% - - 45° 53.5° 50.3° - - -
4/26 2:20am 12 3 G 6 51° 80% - - 45° 53.5° 50.4° - - -
4/26 2:10am 25 2 G 4 51° 79% - - 45° 53.5° 50.9° - - -
4/26 2:00am 49 2 G 4 52° 78% - - 45° 53.5° 51.1° - - -
4/26 1:50am 0 4 G 6 52° 79% - - 46° 53.5° 51.1° - - -
4/26 1:40am 18 3 G 7 51° 79% - - 45° 53.5° 51.1° - - -
4/26 1:30am 28 2 G 5 51° 79% - - 45° 53.5° 51.1° - - -
4/26 1:20am 5 3 G 5 52° 79% - - 45° 53.5° 51.2° - - -
4/26 1:10am 22 2 G 4 52° 79% - - 45° 53.5° 51.2° - - -
4/26 1:00am 44 2 G 3 52° 78% - - 45° 53.5° 51.2° - - -
4/26 12:50am 32 2 G 4 52° 78% - - 45° 53.5° 51.6° - - -
4/26 12:40am 271 2 G 3 52° 76% - - 45° 53.5° 51.6° - - -
4/26 12:30am 31 3 G 6 53° 75% - - 46° 53.5° 52.6° - - -
4/26 12:20am 30 2 G 5 53° 75% - - 45° 53.5° 52.6° - - -
4/26 12:10am 344 1 G 3 53° 75% - - 46° 53.5° 52.6° - - -
4/26 12:00am 25 1 G 3 52° 77% - - 45° 68.4° 51.9° - - -
4/25 11:50pm 100 1 G 3 53° 75% - - 45° 68.4° 52° - - -
4/25 11:40pm 7 2 G 3 53° 75% - - 45° 68.4° 52.8° - - -
4/25 11:30pm 38 2 G 4 53° 74% - - 45° 68.4° 52.8° - - -
4/25 11:20pm 32 2 G 3 53° 74% - - 45° 68.4° 52.9° - - -
4/25 11:10pm 17 2 G 4 54° 73% - - 46° 68.4° 53.5° - - -
4/25 11:00pm 6 3 G 5 54° 73% - - 46° 68.4° 53.5° - - -
4/25 10:50pm 355 1 G 4 54° 73% - - 46° 68.4° 53.6° - - -
4/25 10:40pm 22 2 G 6 54° 73% - - 46° 68.4° 53.7° - - -
4/25 10:30pm 14 2 G 4 54° 72% - - 46° 68.4° 54° - - -
4/25 10:20pm 9 2 G 4 54° 72% - - 46° 68.4° 54.2° - - -
4/25 10:10pm 30 2 G 4 55° 72% - - 46° 68.4° 54.4° - - -
4/25 10:00pm 29 1 G 3 55° 70% - - 46° 68.4° 54.8° - - -
4/25 9:50pm 4 2 G 3 55° 70% - - 46° 68.4° 54.9° - - -
4/25 9:40pm 19 2 G 4 55° 70% - - 46° 68.4° 55.1° - - -
4/25 9:30pm 24 2 G 3 56° 69% - - 46° 68.4° 55.4° - - -
4/25 9:20pm 33 2 G 3 56° 69% - - 46° 68.4° 55.6° - - -
4/25 9:10pm 40 1 G 2 56° 68% - - 45° 68.4° 55.6° - - -
4/25 9:00pm 6 0 G 2 57° 66% - - 45° 68.4° 56° - - -
4/25 8:50pm 8 1 G 1 57° 66% - - 45° 68.4° 56° - - -
4/25 8:40pm 79 0 G 2 57° 66% - - 45° 68.4° 56° - - -
4/25 8:30pm 72 1 G 3 57° 64% - - 45° 68.4° 56° - - -
4/25 8:20pm 274 1 G 3 58° 63% - - 45° 68.4° 56° - - -
4/25 8:10pm 55 1 G 2 58° 62% - - 45° 68.4° 56° - - -
4/25 8:00pm 46 1 G 2 59° 60% - - 45° 68.4° 56° - - -
4/25 7:50pm 251 2 G 3 60° 58% - - 45° 68.4° 56° - - -
4/25 7:40pm 234 1 G 3 60° 57% - - 45° 68.4° 56° - - -
4/25 7:30pm 223 1 G 3 61° 57% - - 45° 68.4° 56° - - -
4/25 7:20pm 240 2 G 5 61° 56% - - 45° 68.4° 56° - - -
4/25 7:10pm 249 2 G 5 62° 56% - - 45° 68.4° 56° - - -
4/25 7:00pm 265 4 G 8 62° 55% - - 45° 68.4° 56° - - -
4/25 6:50pm 267 2 G 8 63° 54% - - 46° 68.4° 56° - - -
4/25 6:40pm 245 2 G 5 63° 54% - - 46° 68.4° 56° - - -
4/25 6:30pm 223 3 G 8 63° 54% - - 46° 68.4° 56° - - -
4/25 6:20pm 237 3 G 7 63° 54% - - 46° 68.4° 56° - - -
4/25 6:10pm 263 3 G 7 63° 55% - - 47° 68.4° 56° - - -
4/25 6:00pm 260 5 G 10 63° 54% - - 47° 68.4° 56° - - -
4/25 5:50pm 268 5 G 9 64° 55% - - 47° 68.4° 56° - - -
4/25 5:40pm 266 5 G 11 65° 55% - - 48° 68.4° 56° - - -
4/25 5:30pm 235 3 G 7 65° 57% - - 49° 68.4° 56° - - -
4/25 5:20pm 209 4 G 12 64° 61% - - 50° 68.4° 56° - - -
4/25 5:10pm 212 6 G 11 63° 62% - - 50° 68.4° 56° - - -
4/25 5:00pm 214 5 G 10 63° 62% - - 50° 68.4° 56° - - -
4/25 4:50pm 215 5 G 11 64° 60% - - 50° 68.4° 56° - - -
4/25 4:40pm 222 5 G 9 64° 60% - - 50° 68.4° 56° - - -
4/25 4:30pm 215 5 G 10 64° 61% - - 50° 68.4° 56° - - -
4/25 4:20pm 207 5 G 10 63° 61% - - 50° 68.4° 56° - - -
4/25 4:10pm 211 5 G 11 64° 60% - - 50° 68.4° 56° - - -
4/25 4:00pm 210 6 G 12 64° 59% - - 50° 68.4° 56° - - -
4/25 3:50pm 231 4 G 11 65° 58% - - 50° 68.4° 56° - - -
4/25 3:40pm 236 5 G 11 65° 58% - - 50° 68.4° 56° - - -
4/25 3:30pm 231 4 G 11 66° 56% - - 50° 68.4° 56° - - -
4/25 3:20pm 214 5 G 12 66° 58% - - 50° 68.4° 56° - - -
4/25 3:10pm 215 5 G 10 65° 58% - - 50° 68.4° 56° - - -
4/25 3:00pm 211 6 G 13 65° 58% - - 50° 68.4° 56° - - -
4/25 2:50pm 214 5 G 10 65° 58% - - 50° 68.4° 56° - - -
4/25 2:40pm 228 5 G 12 65° 58% - - 50° 68.4° 56° - - -
4/25 2:30pm 226 6 G 14 66° 56% - - 50° 68.4° 56° - - -
4/25 2:20pm 228 3 G 9 66° 54% - - 49° 68.4° 56° - - -
4/25 2:10pm 229 5 G 11 66° 53% - - 49° 68.4° 56° - - -
4/25 2:00pm 269 5 G 11 66° 51% - - 48° 68.4° 56° - - -
4/25 1:50pm 250 4 G 8 67° 51% - - 48° 68.4° 56° - - -
4/25 1:40pm 222 4 G 11 67° 50% - - 48° 68.4° 56° - - -
4/25 1:30pm 236 2 G 7 68° 50% - - 48° 68.4° 56° - - -
4/25 1:20pm 217 3 G 10 67° 51% - - 48° 68.4° 56° - - -
4/25 1:10pm 222 6 G 12 66° 52% - - 48° 68.4° 56° - - -
4/25 1:00pm 233 3 G 10 68° 50% - - 48° 68.4° 56° - - -
4/25 12:50pm 236 4 G 11 67° 51% - - 48° 68.2° 56° - - -
4/25 12:40pm 283 4 G 11 67° 49% - - 47° 68.2° 56° - - -
4/25 12:30pm 241 4 G 8 67° 49% - - 47° 68.2° 56° - - -
4/25 12:20pm 195 4 G 12 66° 52% - - 48° 67.1° 56° - - -
4/25 12:10pm 236 4 G 8 66° 51% - - 47° 66.9° 56° - - -
4/25 12:00pm 264 4 G 12 66° 52% - - 48° 66.9° 56° - - -
4/25 11:50am 263 4 G 11 66° 51% - - 47° 66.9° 56° - - -
4/25 11:40am 268 4 G 10 66° 50% - - 47° 66.9° 56° - - -
4/25 11:30am 223 3 G 10 66° 53% - - 48° 66.9° 56° - - -
4/25 11:20am 255 4 G 8 66° 52% - - 48° 66.9° 56° - - -
4/25 11:10am 256 3 G 9 65° 53% - - 48° 65.4° 56° - - -
4/25 11:00am 285 2 G 5 64° 55% - - 48° 65.3° 56° - - -
4/25 10:50am 240 4 G 9 65° 55% - - 48° 65.3° 56° - - -
4/25 10:40am 200 3 G 7 64° 58% - - 49° 65.3° 56° - - -
4/25 10:30am 203 3 G 9 64° 59% - - 49° 65° 56° - - -
4/25 10:20am 225 2 G 6 63° 60% - - 48° 63.3° 56° - - -
4/25 10:10am 181 1 G 4 63° 59% - - 48° 63.3° 56° - - -
4/25 10:00am 169 2 G 5 62° 64% - - 49° 63.1° 56° - - -
4/25 9:50am 235 3 G 7 61° 66% - - 49° 61.9° 56° - - -
4/25 9:40am 141 2 G 3 61° 68% - - 50° 61.9° 56° - - -
4/25 9:30am 199 2 G 5 60° 69% - - 50° 61.9° 56° - - -
4/25 9:20am 204 4 G 8 61° 67% - - 50° 61.9° 56° - - -
4/25 9:10am 203 2 G 5 61° 65% - - 49° 61.9° 56° - - -
4/25 9:00am 205 2 G 4 60° 68% - - 50° 61.2° 56° - - -
4/25 8:50am 230 2 G 6 60° 68% - - 50° 60.5° 56° - - -
4/25 8:40am 219 3 G 6 60° 69% - - 50° 60.3° 56° - - -
4/25 8:30am 203 3 G 6 60° 70% - - 50° 60° 56° - - -
4/25 8:20am 232 2 G 5 59° 72% - - 50° 59.5° 56° - - -
4/25 8:10am 244 2 G 6 58° 74% - - 50° 58.7° 56° - - -
4/25 8:00am 228 1 G 4 58° 75% - - 50° 58.5° 56° - - -
4/25 7:50am 212 1 G 4 58° 76% - - 50° 58.2° 56° - - -
4/25 7:40am 214 1 G 4 58° 77% - - 51° 57.9° 56° - - -
4/25 7:30am 220 1 G 4 57° 78% - - 50° 57.5° 56° - - -
4/25 7:20am 241 1 G 3 57° 79% - - 50° 57.3° 56° - - -
4/25 7:10am 229 1 G 2 57° 79% - - 50° 57.1° 56° - - -
4/25 7:00am 218 2 G 4 57° 79% - - 50° 57.1° 56° - - -
4/25 6:50am 221 2 G 4 56° 79% - - 50° 57.1° 56° - - -
4/25 6:40am 227 1 G 3 56° 79% - - 50° 57.1° 56° - - -
4/25 6:30am 241 1 G 3 56° 79% - - 50° 57.1° 56° - - -
4/25 6:20am 234 1 G 3 56° 78% - - 50° 57.1° 56° - - -
4/25 6:10am 219 2 G 4 56° 78% - - 50° 57.1° 56° - - -
4/25 6:00am 165 1 G 3 56° 78% - - 50° 57.1° 56° - - -
4/25 5:50am 239 1 G 2 56° 78% - - 50° 57.1° 56° - - -
4/25 5:40am 216 1 G 3 56° 78% - - 49° 57.1° 56° - - -
4/25 5:30am 212 0 G 2 56° 78% - - 49° 57.1° 56° - - -
4/25 5:20am 181 1 G 3 56° 77% - - 49° 57.1° 56° - - -
4/25 5:10am 208 1 G 2 56° 77% - - 49° 57.1° 56° - - -
4/25 5:00am 210 1 G 3 56° 77% - - 49° 57.1° 56° - - -
4/25 4:50am 212 0 G 1 56° 77% - - 49° 57.1° 56° - - -
4/25 4:40am 158 0 G 3 56° 77% - - 49° 57.1° 56° - - -
4/25 4:30am 216 2 G 4 56° 76% - - 49° 57.1° 56° - - -
4/25 4:20am 224 1 G 4 57° 76% - - 49° 57.1° 56° - - -
4/25 4:10am 217 2 G 5 56° 76% - - 49° 57.1° 56° - - -
4/25 4:00am 208 2 G 4 56° 77% - - 49° 57.1° 56° - - -
4/25 3:50am 190 2 G 6 56° 77% - - 49° 57.1° 56° - - -
4/25 3:40am 186 3 G 5 56° 77% - - 49° 57.1° 56° - - -
4/25 3:30am 197 2 G 5 56° 78% - - 50° 57.1° 56° - - -
4/25 3:20am 190 2 G 4 56° 78% - - 50° 57.1° 56° - - -
4/25 3:10am 207 2 G 5 56° 78% - - 50° 57.1° 56° - - -
4/25 3:00am 200 2 G 5 56° 78% - - 50° 57.1° 56.1° - - -
4/25 2:50am 217 3 G 7 56° 78% - - 50° 57.1° 56.1° - - -
4/25 2:40am 216 5 G 10 56° 78% - - 50° 57.1° 56.1° - - -
4/25 2:30am 222 4 G 8 57° 79% - - 50° 57.1° 56.1° - - -
4/25 2:20am 224 4 G 7 57° 78% - - 50° 57.1° 56.1° - - -
4/25 2:10am 217 3 G 5 57° 76% - - 50° 57.1° 56.1° - - -
4/25 2:00am 223 2 G 6 57° 75% - - 49° 57.1° 56.1° - - -
4/25 1:50am 215 2 G 6 57° 75% - - 49° 57.1° 56.1° - - -
4/25 1:40am 202 3 G 6 57° 75% - - 49° 57.1° 56.1° - - -
4/25 1:30am 218 2 G 4 57° 75% - - 49° 57.1° 56.1° - - -
4/25 1:20am 246 2 G 4 57° 75% - - 49° 57.1° 56.1° - - -
4/25 1:10am 218 2 G 4 57° 75% - - 49° 57.1° 56.1° - - -
4/25 1:00am 223 1 G 3 57° 75% - - 49° 57.1° 56.1° - - -
4/25 12:50am 220 2 G 4 57° 76% - - 49° 56.9° 56.1° - - -
4/25 12:40am 191 2 G 4 57° 76% - - 49° 56.8° 56.1° - - -
4/25 12:30am 218 2 G 4 56° 77% - - 49° 56.7° 56.1° - - -
4/25 12:20am 221 3 G 6 56° 78% - - 49° 56.6° 56.1° - - -
4/25 12:10am 193 2 G 7 56° 78% - - 50° 56.6° 56.2° - - -
4/25 12:00am 200 4 G 10 57° 77% - - 49° 70.1° 54.6° - - -
4/24 11:50pm 207 4 G 9 57° 76% - - 50° 70.1° 54.6° - - -
4/24 11:40pm 224 3 G 7 57° 75% - - 49° 70.1° 54.6° - - -
4/24 11:30pm 239 2 G 5 57° 74% - - 49° 70.1° 54.6° - - -
4/24 11:20pm 218 2 G 4 57° 75% - - 49° 70.1° 54.6° - - -
4/24 11:10pm 209 2 G 6 57° 75% - - 49° 70.1° 54.6° - - -
4/24 11:00pm 218 2 G 6 57° 76% - - 50° 70.1° 54.6° - - -
4/24 10:50pm 215 3 G 5 57° 76% - - 50° 70.1° 54.6° - - -
4/24 10:40pm 220 3 G 6 57° 77% - - 50° 70.1° 54.6° - - -
4/24 10:30pm 206 4 G 10 57° 78% - - 50° 70.1° 54.6° - - -
4/24 10:20pm 206 2 G 7 57° 79% - - 51° 70.1° 54.6° - - -
4/24 10:10pm 209 4 G 7 57° 79% - - 51° 70.1° 54.6° - - -
4/24 10:00pm 214 2 G 6 57° 79% - - 51° 70.1° 54.6° - - -
4/24 9:50pm 200 1 G 4 57° 79% - - 51° 70.1° 54.6° - - -
4/24 9:40pm 208 1 G 4 57° 80% - - 51° 70.1° 54.6° - - -
4/24 9:30pm 188 2 G 5 57° 80% - - 51° 70.1° 54.6° - - -
4/24 9:20pm 178 3 G 7 57° 79% - - 51° 70.1° 54.6° - - -
4/24 9:10pm 173 2 G 5 58° 78% - - 51° 70.1° 54.6° - - -
4/24 9:00pm 191 1 G 4 58° 78% - - 51° 70.1° 54.6° - - -
4/24 8:50pm 185 2 G 5 58° 77% - - 51° 70.1° 54.6° - - -
4/24 8:40pm 183 2 G 6 58° 77% - - 51° 70.1° 54.6° - - -
4/24 8:30pm 186 2 G 6 58° 77% - - 51° 70.1° 54.6° - - -
4/24 8:20pm 188 2 G 6 58° 77% - - 51° 70.1° 54.6° - - -
4/24 8:10pm 180 2 G 5 58° 77% - - 51° 70.1° 54.6° - - -
4/24 8:00pm 184 2 G 6 58° 77% - - 51° 70.1° 54.6° - - -
4/24 7:50pm 186 2 G 5 59° 76% - - 51° 70.1° 54.6° - - -
4/24 7:40pm 198 2 G 4 59° 75% - - 51° 70.1° 54.6° - - -
4/24 7:30pm 211 2 G 5 60° 75% - - 52° 70.1° 54.6° - - -
4/24 7:20pm 200 2 G 4 60° 74% - - 52° 70.1° 54.6° - - -
4/24 7:10pm 210 2 G 5 60° 73% - - 52° 70.1° 54.6° - - -
4/24 7:00pm 213 2 G 4 61° 73% - - 52° 70.1° 54.6° - - -
4/24 6:50pm 212 3 G 7 61° 72% - - 52° 70.1° 54.6° - - -
4/24 6:40pm 207 4 G 8 62° 70% - - 52° 70.1° 54.6° - - -
4/24 6:30pm 212 3 G 7 62° 69% - - 52° 70.1° 54.6° - - -
4/24 6:20pm 196 3 G 7 62° 69% - - 52° 70.1° 54.6° - - -
4/24 6:10pm 215 3 G 7 62° 69% - - 52° 70.1° 54.6° - - -
4/24 6:00pm 215 4 G 9 63° 68% - - 52° 70.1° 54.6° - - -